sensor_id;sensor_type;location;lat;lon;timestamp;pressure;altitude;pressure_sealevel;temperature;humidity
70468;BME280;57934;51.532;7.684;2023-01-27T00:00:55;101079.22;;;1.42;100.00
70468;BME280;57934;51.532;7.684;2023-01-27T00:03:23;101074.16;;;1.40;100.00
70468;BME280;57934;51.532;7.684;2023-01-27T00:05:50;101079.00;;;1.45;100.00
70468;BME280;57934;51.532;7.684;2023-01-27T00:08:17;101071.81;;;1.49;100.00
70468;BME280;57934;51.532;7.684;2023-01-27T00:10:45;101077.09;;;1.47;100.00
70468;BME280;57934;51.532;7.684;2023-01-27T00:13:13;101070.75;;;1.51;100.00
70468;BME280;57934;51.532;7.684;2023-01-27T00:15:57;101067.22;;;1.52;100.00
70468;BME280;57934;51.532;7.684;2023-01-27T00:18:23;101072.41;;;1.52;100.00
70468;BME280;57934;51.532;7.684;2023-01-27T00:20:50;101085.41;;;1.52;100.00
70468;BME280;57934;51.532;7.684;2023-01-27T00:23:35;101081.03;;;1.53;100.00
70468;BME280;57934;51.532;7.684;2023-01-27T00:26:22;101088.81;;;1.53;100.00
70468;BME280;57934;51.532;7.684;2023-01-27T00:28:48;101080.66;;;1.57;100.00
70468;BME280;57934;51.532;7.684;2023-01-27T00:31:18;101084.00;;;1.59;100.00
70468;BME280;57934;51.532;7.684;2023-01-27T00:34:03;101083.16;;;1.59;100.00
70468;BME280;57934;51.532;7.684;2023-01-27T00:36:36;101094.97;;;1.52;100.00
70468;BME280;57934;51.532;7.684;2023-01-27T00:39:05;101103.59;;;1.52;100.00
70468;BME280;57934;51.532;7.684;2023-01-27T00:41:31;101101.56;;;1.45;100.00
70468;BME280;57934;51.532;7.684;2023-01-27T00:43:59;101104.47;;;1.40;100.00
70468;BME280;57934;51.532;7.684;2023-01-27T00:46:28;101108.25;;;1.36;100.00
70468;BME280;57934;51.532;7.684;2023-01-27T00:48:54;101109.06;;;1.36;100.00
70468;BME280;57934;51.532;7.684;2023-01-27T00:51:21;101105.66;;;1.36;100.00
70468;BME280;57934;51.532;7.684;2023-01-27T00:53:47;101114.41;;;1.35;100.00
70468;BME280;57934;51.532;7.684;2023-01-27T00:56:16;101110.25;;;1.32;100.00
70468;BME280;57934;51.532;7.684;2023-01-27T00:58:42;101098.91;;;1.33;100.00
70468;BME280;57934;51.532;7.684;2023-01-27T01:01:11;101112.63;;;1.35;100.00
70468;BME280;57934;51.532;7.684;2023-01-27T01:03:39;101114.75;;;1.30;100.00
70468;BME280;57934;51.532;7.684;2023-01-27T01:06:08;101107.19;;;1.27;100.00
70468;BME280;57934;51.532;7.684;2023-01-27T01:08:36;101115.06;;;1.26;100.00
70468;BME280;57934;51.532;7.684;2023-01-27T01:11:05;101113.97;;;1.17;100.00
70468;BME280;57934;51.532;7.684;2023-01-27T01:13:33;101114.38;;;1.24;100.00
70468;BME280;57934;51.532;7.684;2023-01-27T01:16:07;101116.34;;;1.20;100.00
70468;BME280;57934;51.532;7.684;2023-01-27T01:18:34;101115.38;;;1.10;100.00
70468;BME280;57934;51.532;7.684;2023-01-27T01:21:01;101112.16;;;1.06;100.00
70468;BME280;57934;51.532;7.684;2023-01-27T01:23:27;101124.63;;;1.01;100.00
70468;BME280;57934;51.532;7.684;2023-01-27T01:25:55;101119.44;;;1.01;100.00
70468;BME280;57934;51.532;7.684;2023-01-27T01:28:23;101124.63;;;1.01;100.00
70468;BME280;57934;51.532;7.684;2023-01-27T01:30:50;101125.16;;;1.06;100.00
70468;BME280;57934;51.532;7.684;2023-01-27T01:33:17;101131.03;;;1.08;100.00
70468;BME280;57934;51.532;7.684;2023-01-27T01:35:44;101124.06;;;1.09;100.00
70468;BME280;57934;51.532;7.684;2023-01-27T01:38:11;101122.94;;;1.13;100.00
70468;BME280;57934;51.532;7.684;2023-01-27T01:40:43;101132.97;;;1.17;100.00
70468;BME280;57934;51.532;7.684;2023-01-27T01:43:16;101123.97;;;1.10;100.00
70468;BME280;57934;51.532;7.684;2023-01-27T01:45:53;101123.63;;;1.15;100.00
70468;BME280;57934;51.532;7.684;2023-01-27T01:48:22;101124.38;;;1.17;100.00
70468;BME280;57934;51.532;7.684;2023-01-27T01:50:56;101119.28;;;1.15;100.00
70468;BME280;57934;51.532;7.684;2023-01-27T01:53:27;101119.41;;;1.14;100.00
70468;BME280;57934;51.532;7.684;2023-01-27T01:55:57;101117.63;;;1.14;100.00
70468;BME280;57934;51.532;7.684;2023-01-27T01:58:26;101122.22;;;1.11;100.00
70468;BME280;57934;51.532;7.684;2023-01-27T02:00:54;101115.84;;;1.15;100.00
70468;BME280;57934;51.532;7.684;2023-01-27T02:03:23;101108.88;;;1.15;100.00
70468;BME280;57934;51.532;7.684;2023-01-27T02:05:53;101115.97;;;1.13;100.00
70468;BME280;57934;51.532;7.684;2023-01-27T02:08:28;101112.66;;;1.11;100.00
70468;BME280;57934;51.532;7.684;2023-01-27T02:10:56;101120.94;;;1.16;100.00
70468;BME280;57934;51.532;7.684;2023-01-27T02:13:23;101113.25;;;1.15;100.00
70468;BME280;57934;51.532;7.684;2023-01-27T02:15:51;101114.81;;;1.17;100.00
70468;BME280;57934;51.532;7.684;2023-01-27T02:18:19;101122.97;;;1.24;100.00
70468;BME280;57934;51.532;7.684;2023-01-27T02:20:50;101119.88;;;1.19;100.00
70468;BME280;57934;51.532;7.684;2023-01-27T02:28:16;101115.75;;;1.16;100.00
70468;BME280;57934;51.532;7.684;2023-01-27T02:30:42;101119.19;;;1.17;100.00
70468;BME280;57934;51.532;7.684;2023-01-27T02:33:13;101122.72;;;1.16;100.00
70468;BME280;57934;51.532;7.684;2023-01-27T02:35:56;101120.81;;;1.18;100.00
70468;BME280;57934;51.532;7.684;2023-01-27T02:38:28;101119.78;;;1.21;100.00
70468;BME280;57934;51.532;7.684;2023-01-27T02:40:56;101119.19;;;1.17;100.00
70468;BME280;57934;51.532;7.684;2023-01-27T02:43:26;101120.59;;;1.21;100.00
70468;BME280;57934;51.532;7.684;2023-01-27T02:45:52;101120.81;;;1.18;100.00
70468;BME280;57934;51.532;7.684;2023-01-27T02:48:19;101109.81;;;1.14;100.00
70468;BME280;57934;51.532;7.684;2023-01-27T02:50:45;101112.69;;;1.23;100.00
70468;BME280;57934;51.532;7.684;2023-01-27T02:53:11;101115.19;;;1.24;100.00
70468;BME280;57934;51.532;7.684;2023-01-27T02:55:38;101116.66;;;1.15;100.00
70468;BME280;57934;51.532;7.684;2023-01-27T02:58:05;101124.47;;;1.15;100.00
70468;BME280;57934;51.532;7.684;2023-01-27T03:00:42;101120.59;;;1.21;100.00
70468;BME280;57934;51.532;7.684;2023-01-27T03:03:08;101124.38;;;1.17;100.00
70468;BME280;57934;51.532;7.684;2023-01-27T03:05:35;101120.59;;;1.21;100.00
70468;BME280;57934;51.532;7.684;2023-01-27T03:08:01;101117.66;;;1.26;100.00
70468;BME280;57934;51.532;7.684;2023-01-27T03:10:27;101112.69;;;1.23;100.00
70468;BME280;57934;51.532;7.684;2023-01-27T03:12:57;101116.22;;;1.22;100.00
70468;BME280;57934;51.532;7.684;2023-01-27T03:15:23;101111.84;;;1.22;100.00
70468;BME280;57934;51.532;7.684;2023-01-27T03:18:09;101111.28;;;1.30;100.00
70468;BME280;57934;51.532;7.684;2023-01-27T03:20:43;101109.66;;;1.29;100.00
70468;BME280;57934;51.532;7.684;2023-01-27T03:23:10;101105.56;;;1.37;100.00
70468;BME280;57934;51.532;7.684;2023-01-27T03:25:42;101109.06;;;1.36;100.00
70468;BME280;57934;51.532;7.684;2023-01-27T03:28:09;101119.69;;;1.33;100.00
70468;BME280;57934;51.532;7.684;2023-01-27T03:30:48;101108.38;;;1.34;100.00
70468;BME280;57934;51.532;7.684;2023-01-27T03:33:19;101111.91;;;1.33;100.00
70468;BME280;57934;51.532;7.684;2023-01-27T03:35:51;101115.22;;;1.35;100.00
70468;BME280;57934;51.532;7.684;2023-01-27T03:38:42;101114.50;;;1.33;100.00
70468;BME280;57934;51.532;7.684;2023-01-27T03:41:28;101113.66;;;1.33;100.00
70468;BME280;57934;51.532;7.684;2023-01-27T03:44:13;101115.44;;;1.32;100.00
70468;BME280;57934;51.532;7.684;2023-01-27T03:46:58;101113.66;;;1.33;100.00
70468;BME280;57934;51.532;7.684;2023-01-27T03:49:25;101112.63;;;1.35;100.00
70468;BME280;57934;51.532;7.684;2023-01-27T03:51:52;101123.38;;;1.31;100.00
70468;BME280;57934;51.532;7.684;2023-01-27T03:54:18;101112.03;;;1.32;100.00
70468;BME280;57934;51.532;7.684;2023-01-27T03:56:45;101119.22;;;1.28;100.00
70468;BME280;57934;51.532;7.684;2023-01-27T03:59:14;101126.66;;;1.33;100.00
70468;BME280;57934;51.532;7.684;2023-01-27T04:01:40;101128.09;;;1.37;100.00
70468;BME280;57934;51.532;7.684;2023-01-27T04:04:09;101128.72;;;1.40;100.00
70468;BME280;57934;51.532;7.684;2023-01-27T04:06:55;101125.16;;;1.41;100.00
70468;BME280;57934;51.532;7.684;2023-01-27T04:09:30;101122.78;;;1.38;100.00
70468;BME280;57934;51.532;7.684;2023-01-27T04:12:00;101122.19;;;1.35;100.00
70468;BME280;57934;51.532;7.684;2023-01-27T04:14:31;101132.59;;;1.35;100.00
70468;BME280;57934;51.532;7.684;2023-01-27T04:17:01;101125.84;;;1.32;100.00
70468;BME280;57934;51.532;7.684;2023-01-27T04:19:32;101123.75;;;1.37;100.00
70468;BME280;57934;51.532;7.684;2023-01-27T04:22:00;101120.63;;;1.32;100.00
70468;BME280;57934;51.532;7.684;2023-01-27T04:24:27;101126.19;;;1.28;100.00
70468;BME280;57934;51.532;7.684;2023-01-27T04:26:56;101129.03;;;1.36;100.00
70468;BME280;57934;51.532;7.684;2023-01-27T04:29:26;101132.97;;;1.41;100.00
70468;BME280;57934;51.532;7.684;2023-01-27T04:31:56;101135.44;;;1.43;100.00
70468;BME280;57934;51.532;7.684;2023-01-27T04:34:24;101129.41;;;1.42;100.00
70468;BME280;57934;51.532;7.684;2023-01-27T04:36:51;101134.63;;;1.42;100.00
70468;BME280;57934;51.532;7.684;2023-01-27T04:39:18;101133.91;;;1.40;100.00
70468;BME280;57934;51.532;7.684;2023-01-27T04:41:45;101127.78;;;1.41;100.00
70468;BME280;57934;51.532;7.684;2023-01-27T04:44:11;101137.22;;;1.42;100.00
70468;BME280;57934;51.532;7.684;2023-01-27T04:46:38;101138.16;;;1.41;100.00
70468;BME280;57934;51.532;7.684;2023-01-27T04:49:05;101132.38;;;1.38;100.00
70468;BME280;57934;51.532;7.684;2023-01-27T04:51:32;101144.31;;;1.40;100.00
70468;BME280;57934;51.532;7.684;2023-01-27T04:53:59;101147.22;;;1.36;100.00
70468;BME280;57934;51.532;7.684;2023-01-27T04:56:36;101147.00;;;1.39;100.00
70468;BME280;57934;51.532;7.684;2023-01-27T04:59:05;101147.00;;;1.39;100.00
70468;BME280;57934;51.532;7.684;2023-01-27T05:01:32;101147.81;;;1.39;100.00
70468;BME280;57934;51.532;7.684;2023-01-27T05:04:01;101155.53;;;1.41;100.00
70468;BME280;57934;51.532;7.684;2023-01-27T05:06:27;101151.03;;;1.43;100.00
70468;BME280;57934;51.532;7.684;2023-01-27T05:08:55;101164.75;;;1.45;100.00
70468;BME280;57934;51.532;7.684;2023-01-27T05:11:23;101164.75;;;1.45;100.00
70468;BME280;57934;51.532;7.684;2023-01-27T05:13:49;101163.78;;;1.46;100.00
70468;BME280;57934;51.532;7.684;2023-01-27T05:16:21;101166.63;;;1.43;100.00
70468;BME280;57934;51.532;7.684;2023-01-27T05:18:50;101163.72;;;1.48;100.00
70468;BME280;57934;51.532;7.684;2023-01-27T05:21:24;101165.44;;;1.47;100.00
70468;BME280;57934;51.532;7.684;2023-01-27T05:23:54;101167.34;;;1.45;100.00
70468;BME280;57934;51.532;7.684;2023-01-27T05:26:26;101168.03;;;1.47;100.00
70468;BME280;57934;51.532;7.684;2023-01-27T05:28:56;101173.84;;;1.51;100.00
70468;BME280;57934;51.532;7.684;2023-01-27T05:31:31;101164.75;;;1.45;100.00
70468;BME280;57934;51.532;7.684;2023-01-27T05:34:00;101174.69;;;1.51;100.00
70468;BME280;57934;51.532;7.684;2023-01-27T05:36:28;101166.78;;;1.53;100.00
70468;BME280;57934;51.532;7.684;2023-01-27T05:38:56;101173.84;;;1.51;100.00
70468;BME280;57934;51.532;7.684;2023-01-27T05:41:24;101175.53;;;1.52;100.00
70468;BME280;57934;51.532;7.684;2023-01-27T05:43:53;101171.97;;;1.53;100.00
70468;BME280;57934;51.532;7.684;2023-01-27T05:46:22;101183.81;;;1.57;100.00
70468;BME280;57934;51.532;7.684;2023-01-27T05:48:54;101177.91;;;1.55;100.00
70468;BME280;57934;51.532;7.684;2023-01-27T05:51:23;101182.25;;;1.54;100.00
70468;BME280;57934;51.532;7.684;2023-01-27T05:53:52;101186.41;;;1.57;100.00
70468;BME280;57934;51.532;7.684;2023-01-27T05:56:24;101187.34;;;1.56;100.00
70468;BME280;57934;51.532;7.684;2023-01-27T05:58:56;101188.78;;;1.60;100.00
70468;BME280;57934;51.532;7.684;2023-01-27T06:01:25;101184.75;;;1.56;100.00
70468;BME280;57934;51.532;7.684;2023-01-27T06:03:52;101185.44;;;1.58;100.00
70468;BME280;57934;51.532;7.684;2023-01-27T06:06:22;101192.53;;;1.56;100.00
70468;BME280;57934;51.532;7.684;2023-01-27T06:08:49;101191.38;;;1.60;100.00
70468;BME280;57934;51.532;7.684;2023-01-27T06:11:16;101193.97;;;1.60;100.00
70468;BME280;57934;51.532;7.684;2023-01-27T06:13:45;101191.25;;;1.61;100.00
70468;BME280;57934;51.532;7.684;2023-01-27T06:16:14;101182.84;;;1.58;100.00
70468;BME280;57934;51.532;7.684;2023-01-27T06:18:43;101193.03;;;1.61;100.00
70468;BME280;57934;51.532;7.684;2023-01-27T06:21:11;101190.09;;;1.65;100.00
70468;BME280;57934;51.532;7.684;2023-01-27T06:23:37;101195.53;;;1.62;100.00
70468;BME280;57934;51.532;7.684;2023-01-27T06:26:07;101200.59;;;1.64;100.00
70468;BME280;57934;51.532;7.684;2023-01-27T06:28:35;101200.13;;;1.59;100.00
70468;BME280;57934;51.532;7.684;2023-01-27T06:31:12;101202.38;;;1.63;100.00
70468;BME280;57934;51.532;7.684;2023-01-27T06:33:39;101202.88;;;1.69;100.00
70468;BME280;57934;51.532;7.684;2023-01-27T06:36:10;101206.41;;;1.67;100.00
70468;BME280;57934;51.532;7.684;2023-01-27T06:38:39;101208.31;;;1.65;100.00
70468;BME280;57934;51.532;7.684;2023-01-27T06:41:06;101215.25;;;1.65;100.00
70468;BME280;57934;51.532;7.684;2023-01-27T06:43:34;101208.31;;;1.65;100.00
70468;BME280;57934;51.532;7.684;2023-01-27T06:46:02;101219.31;;;1.69;100.00
70468;BME280;57934;51.532;7.684;2023-01-27T06:48:30;101213.03;;;1.72;100.00
70468;BME280;57934;51.532;7.684;2023-01-27T06:50:56;101217.78;;;1.78;100.00
70468;BME280;57934;51.532;7.684;2023-01-27T06:53:23;101220.94;;;1.70;100.00
70468;BME280;57934;51.532;7.684;2023-01-27T06:56:00;101222.59;;;1.71;100.00
70468;BME280;57934;51.532;7.684;2023-01-27T06:58:27;101220.34;;;1.66;100.00
70468;BME280;57934;51.532;7.684;2023-01-27T07:00:55;101227.19;;;1.67;100.00
70468;BME280;57934;51.532;7.684;2023-01-27T07:03:22;101228.97;;;1.67;100.00
70468;BME280;57934;51.532;7.684;2023-01-27T07:05:49;101225.09;;;1.73;100.00
70468;BME280;57934;51.532;7.684;2023-01-27T07:08:15;101232.91;;;1.73;100.00
70468;BME280;57934;51.532;7.684;2023-01-27T07:10:42;101232.19;;;1.71;100.00
70468;BME280;57934;51.532;7.684;2023-01-27T07:13:11;101235.50;;;1.73;100.00
70468;BME280;57934;51.532;7.684;2023-01-27T07:15:39;101237.88;;;1.76;100.00
70468;BME280;57934;51.532;7.684;2023-01-27T07:18:11;101233.50;;;1.76;100.00
70468;BME280;57934;51.532;7.684;2023-01-27T07:20:40;101240.22;;;1.79;100.00
70468;BME280;57934;51.532;7.684;2023-01-27T07:23:09;101239.19;;;1.81;100.00
70468;BME280;57934;51.532;7.684;2023-01-27T07:25:36;101243.56;;;1.81;100.00
70468;BME280;57934;51.532;7.684;2023-01-27T07:28:12;101241.91;;;1.80;100.00
70468;BME280;57934;51.532;7.684;2023-01-27T07:30:47;101254.91;;;1.80;100.00
70468;BME280;57934;51.532;7.684;2023-01-27T07:33:14;101244.59;;;1.78;100.00
70468;BME280;57934;51.532;7.684;2023-01-27T07:35:47;101243.44;;;1.82;100.00
70468;BME280;57934;51.532;7.684;2023-01-27T07:38:15;101243.13;;;1.87;100.00
70468;BME280;57934;51.532;7.684;2023-01-27T07:40:42;101246.31;;;1.90;100.00
70468;BME280;57934;51.532;7.684;2023-01-27T07:43:09;101248.78;;;1.92;100.00
70468;BME280;57934;51.532;7.684;2023-01-27T07:45:41;101253.06;;;1.93;100.00
70468;BME280;57934;51.532;7.684;2023-01-27T07:48:08;101258.03;;;1.96;100.00
70468;BME280;57934;51.532;7.684;2023-01-27T07:50:43;101252.00;;;1.96;100.00
70468;BME280;57934;51.532;7.684;2023-01-27T07:53:15;101256.72;;;1.90;100.00
70468;BME280;57934;51.532;7.684;2023-01-27T07:55:42;101254.59;;;1.96;100.00
70468;BME280;57934;51.532;7.684;2023-01-27T07:58:11;101253.78;;;1.95;100.00
70468;BME280;57934;51.532;7.684;2023-01-27T08:00:39;101251.91;;;1.97;100.00
70468;BME280;57934;51.532;7.684;2023-01-27T08:03:23;101255.34;;;1.98;100.00
70468;BME280;57934;51.532;7.684;2023-01-27T08:05:50;101266.22;;;2.03;100.00
70468;BME280;57934;51.532;7.684;2023-01-27T08:08:16;101260.78;;;2.06;100.00
70468;BME280;57934;51.532;7.684;2023-01-27T08:10:46;101267.63;;;2.07;100.00
70468;BME280;57934;51.532;7.684;2023-01-27T08:13:18;101263.50;;;2.04;100.00
70468;BME280;57934;51.532;7.684;2023-01-27T08:15:46;101267.88;;;2.04;100.00
70468;BME280;57934;51.532;7.684;2023-01-27T08:18:13;101267.41;;;2.10;100.00
70468;BME280;57934;51.532;7.684;2023-01-27T08:20:40;101265.63;;;2.10;100.00
70468;BME280;57934;51.532;7.684;2023-01-27T08:23:06;101266.59;;;2.09;100.00
70468;BME280;57934;51.532;7.684;2023-01-27T08:25:37;101268.13;;;2.12;100.00
70468;BME280;57934;51.532;7.684;2023-01-27T08:28:04;101275.00;;;2.24;100.00
70468;BME280;57934;51.532;7.684;2023-01-27T08:30:38;101267.47;;;2.21;100.00
70468;BME280;57934;51.532;7.684;2023-01-27T08:33:04;101271.13;;;2.19;100.00
70468;BME280;57934;51.532;7.684;2023-01-27T08:35:30;101269.13;;;2.22;100.00
70468;BME280;57934;51.532;7.684;2023-01-27T08:37:56;101268.06;;;2.25;100.00
70468;BME280;57934;51.532;7.684;2023-01-27T08:40:22;101273.25;;;2.25;100.00
70468;BME280;57934;51.532;7.684;2023-01-27T08:42:49;101275.75;;;2.26;100.00
70468;BME280;57934;51.532;7.684;2023-01-27T08:45:16;101278.00;;;2.31;100.00
70468;BME280;57934;51.532;7.684;2023-01-27T08:47:42;101274.34;;;2.33;100.00
70468;BME280;57934;51.532;7.684;2023-01-27T08:50:08;101282.88;;;2.35;100.00
70468;BME280;57934;51.532;7.684;2023-01-27T08:52:35;101282.38;;;2.30;100.00
70468;BME280;57934;51.532;7.684;2023-01-27T08:55:03;101287.69;;;2.29;100.00
70468;BME280;57934;51.532;7.684;2023-01-27T08:57:29;101288.16;;;2.34;100.00
70468;BME280;57934;51.532;7.684;2023-01-27T08:59:57;101297.53;;;2.36;100.00
70468;BME280;57934;51.532;7.684;2023-01-27T09:02:23;101295.75;;;2.37;100.00
70468;BME280;57934;51.532;7.684;2023-01-27T09:04:50;101299.91;;;2.39;100.00
70468;BME280;57934;51.532;7.684;2023-01-27T09:07:16;101296.22;;;2.42;100.00
70468;BME280;57934;51.532;7.684;2023-01-27T09:09:46;101302.03;;;2.46;100.00
70468;BME280;57934;51.532;7.684;2023-01-27T09:12:13;101306.63;;;2.42;100.00
70468;BME280;57934;51.532;7.684;2023-01-27T09:14:39;101303.81;;;2.45;100.00
70468;BME280;57934;51.532;7.684;2023-01-27T09:17:05;101311.75;;;2.44;100.00
70468;BME280;57934;51.532;7.684;2023-01-27T09:19:31;101311.13;;;2.40;100.00
70468;BME280;57934;51.532;7.684;2023-01-27T09:21:57;101305.34;;;2.48;100.00
70468;BME280;57934;51.532;7.684;2023-01-27T09:24:23;101314.00;;;2.48;100.00
70468;BME280;57934;51.532;7.684;2023-01-27T09:26:49;101319.31;;;2.47;100.00
70468;BME280;57934;51.532;7.684;2023-01-27T09:29:16;101325.13;;;2.50;100.00
70468;BME280;57934;51.532;7.684;2023-01-27T09:31:42;101330.34;;;2.50;100.00
70468;BME280;57934;51.532;7.684;2023-01-27T09:34:08;101327.59;;;2.52;100.00
70468;BME280;57934;51.532;7.684;2023-01-27T09:36:39;101325.81;;;2.52;100.00
70468;BME280;57934;51.532;7.684;2023-01-27T09:39:07;101335.09;;;2.56;100.00
70468;BME280;57934;51.532;7.684;2023-01-27T09:50:07;101339.94;;;2.61;100.00
70468;BME280;57934;51.532;7.684;2023-01-27T09:52:43;101340.91;;;2.60;100.00
70468;BME280;57934;51.532;7.684;2023-01-27T09:58:13;101343.84;;;2.67;100.00
70468;BME280;57934;51.532;7.684;2023-01-27T10:06:32;101350.00;;;2.66;100.00
70468;BME280;57934;51.532;7.684;2023-01-27T10:09:22;101353.44;;;2.66;100.00
70468;BME280;57934;51.532;7.684;2023-01-27T10:14:59;101343.75;;;2.68;100.00
70468;BME280;57934;51.532;7.684;2023-01-27T10:20:41;101346.94;;;2.72;100.00
70468;BME280;57934;51.532;7.684;2023-01-27T10:23:28;101355.72;;;2.71;100.00
70468;BME280;57934;51.532;7.684;2023-01-27T10:26:20;101354.97;;;2.69;100.00
70468;BME280;57934;51.532;7.684;2023-01-27T10:28:50;101360.78;;;2.72;100.00
70468;BME280;57934;51.532;7.684;2023-01-27T10:31:26;101355.34;;;2.75;100.00
70468;BME280;57934;51.532;7.684;2023-01-27T10:34:00;101357.59;;;2.80;100.00
70468;BME280;57934;51.532;7.684;2023-01-27T10:36:54;101345.53;;;2.79;100.00
70468;BME280;57934;51.532;7.684;2023-01-27T10:42:27;101353.81;;;2.73;100.00
70468;BME280;57934;51.532;7.684;2023-01-27T10:47:49;101351.78;;;2.76;100.00
70468;BME280;57934;51.532;7.684;2023-01-27T10:50:45;101344.09;;;2.75;100.00
70468;BME280;57934;51.532;7.684;2023-01-27T10:53:19;101352.53;;;2.78;100.00
70468;BME280;57934;51.532;7.684;2023-01-27T10:58:54;101348.16;;;2.90;100.00
70468;BME280;57934;51.532;7.684;2023-01-27T11:01:27;101345.66;;;3.00;100.00
70468;BME280;57934;51.532;7.684;2023-01-27T11:06:39;101339.03;;;3.07;100.00
70468;BME280;57934;51.532;7.684;2023-01-27T11:09:31;101334.41;;;3.10;100.00
70468;BME280;57934;51.532;7.684;2023-01-27T11:12:06;101330.16;;;3.21;100.00
70468;BME280;57934;51.532;7.684;2023-01-27T11:14:45;101334.03;;;3.26;100.00
70468;BME280;57934;51.532;7.684;2023-01-27T11:19:42;101335.59;;;3.06;100.00
70468;BME280;57934;51.532;7.684;2023-01-27T11:22:34;101328.38;;;3.10;100.00
70468;BME280;57934;51.532;7.684;2023-01-27T11:25:06;101330.28;;;3.08;100.00
70468;BME280;57934;51.532;7.684;2023-01-27T11:30:32;101330.53;;;3.16;100.00
70468;BME280;57934;51.532;7.684;2023-01-27T11:35:41;101325.31;;;3.16;100.00
70468;BME280;57934;51.532;7.684;2023-01-27T11:38:13;101327.31;;;3.13;100.00
70468;BME280;57934;51.532;7.684;2023-01-27T11:40:42;101327.56;;;3.09;100.00
70468;BME280;57934;51.532;7.684;2023-01-27T11:43:14;101326.81;;;3.19;100.00
70468;BME280;57934;51.532;7.684;2023-01-27T11:45:42;101331.13;;;3.20;100.00
70468;BME280;57934;51.532;7.684;2023-01-27T11:48:12;101327.66;;;3.19;100.00
70468;BME280;57934;51.532;7.684;2023-01-27T11:50:41;101327.91;;;3.16;100.00
70468;BME280;57934;51.532;7.684;2023-01-27T11:53:24;101329.69;;;3.27;100.00
70468;BME280;57934;51.532;7.684;2023-01-27T11:55:59;101322.94;;;3.24;100.00
70468;BME280;57934;51.532;7.684;2023-01-27T11:58:37;101329.56;;;3.17;100.00
70468;BME280;57934;51.532;7.684;2023-01-27T12:01:18;101323.88;;;3.23;100.00
70468;BME280;57934;51.532;7.684;2023-01-27T12:03:53;101327.19;;;3.25;100.00
70468;BME280;57934;51.532;7.684;2023-01-27T12:06:37;101325.66;;;3.34;100.00
70468;BME280;57934;51.532;7.684;2023-01-27T12:09:05;101319.25;;;3.38;100.00
70468;BME280;57934;51.532;7.684;2023-01-27T12:11:31;101319.00;;;3.30;99.30
70468;BME280;57934;51.532;7.684;2023-01-27T12:13:59;101315.22;;;3.34;99.18
70468;BME280;57934;51.532;7.684;2023-01-27T12:16:49;101309.53;;;3.29;98.85
70468;BME280;57934;51.532;7.684;2023-01-27T12:19:26;101315.81;;;3.38;98.88
70468;BME280;57934;51.532;7.684;2023-01-27T12:21:57;101314.38;;;3.45;98.90
70468;BME280;57934;51.532;7.684;2023-01-27T12:24:29;101319.69;;;3.43;98.45
70468;BME280;57934;51.532;7.684;2023-01-27T12:26:57;101319.47;;;3.46;98.37
70468;BME280;57934;51.532;7.684;2023-01-27T12:29:41;101315.06;;;3.47;97.78
70468;BME280;57934;51.532;7.684;2023-01-27T12:32:15;101313.63;;;3.54;97.65
70468;BME280;57934;51.532;7.684;2023-01-27T12:34:48;101305.47;;;3.47;97.28
70468;BME280;57934;51.532;7.684;2023-01-27T12:37:36;101313.66;;;3.43;97.76
70468;BME280;57934;51.532;7.684;2023-01-27T12:40:14;101310.22;;;3.42;97.48
70468;BME280;57934;51.532;7.684;2023-01-27T12:43:28;101308.34;;;3.44;97.46
70468;BME280;57934;51.532;7.684;2023-01-27T12:45:32;101303.84;;;3.35;97.19
70468;BME280;57934;51.532;7.684;2023-01-27T12:50:36;101306.69;;;3.32;96.62
70468;BME280;57934;51.532;7.684;2023-01-27T12:53:04;101304.91;;;3.21;97.71
70468;BME280;57934;51.532;7.684;2023-01-27T12:55:35;101305.06;;;3.20;97.18
70468;BME280;57934;51.532;7.684;2023-01-27T12:58:03;101311.53;;;3.25;98.19
70468;BME280;57934;51.532;7.684;2023-01-27T13:00:31;101316.88;;;3.24;96.80
70468;BME280;57934;51.532;7.684;2023-01-27T13:03:04;101317.13;;;3.21;96.60
70468;BME280;57934;51.532;7.684;2023-01-27T13:05:36;101312.59;;;3.23;96.43
70468;BME280;57934;51.532;7.684;2023-01-27T13:08:03;101318.66;;;3.23;96.65
70468;BME280;57934;51.532;7.684;2023-01-27T13:10:29;101316.31;;;3.20;96.53
70468;BME280;57934;51.532;7.684;2023-01-27T13:12:59;101308.13;;;3.14;96.11
70468;BME280;57934;51.532;7.684;2023-01-27T13:15:28;101309.66;;;3.05;95.96
70468;BME280;57934;51.532;7.684;2023-01-27T13:17:58;101310.84;;;3.12;96.77
70468;BME280;57934;51.532;7.684;2023-01-27T13:20:35;101313.44;;;3.01;96.40
70468;BME280;57934;51.532;7.684;2023-01-27T13:23:22;101319.97;;;2.95;96.25
70468;BME280;57934;51.532;7.684;2023-01-27T13:28:26;101307.66;;;2.97;96.58
70468;BME280;57934;51.532;7.684;2023-01-27T13:30:58;101318.91;;;2.98;96.63
70468;BME280;57934;51.532;7.684;2023-01-27T13:33:48;101314.63;;;3.08;96.36
70468;BME280;57934;51.532;7.684;2023-01-27T13:36:36;101322.34;;;3.09;96.75
70468;BME280;57934;51.532;7.684;2023-01-27T13:39:27;101327.56;;;3.21;96.28
70468;BME280;57934;51.532;7.684;2023-01-27T13:47:17;101335.16;;;3.13;96.10
70468;BME280;57934;51.532;7.684;2023-01-27T13:49:47;101332.03;;;3.19;95.51
70468;BME280;57934;51.532;7.684;2023-01-27T13:52:15;101324.72;;;3.13;94.59
70468;BME280;57934;51.532;7.684;2023-01-27T13:54:41;101329.34;;;3.20;94.74
70468;BME280;57934;51.532;7.684;2023-01-27T13:57:44;101334.78;;;3.17;94.84
70468;BME280;57934;51.532;7.684;2023-01-27T14:00:26;101337.25;;;3.19;94.46
70468;BME280;57934;51.532;7.684;2023-01-27T14:06:23;101332.66;;;3.33;93.85
70468;BME280;57934;51.532;7.684;2023-01-27T14:11:40;101339.84;;;3.19;94.17
70468;BME280;57934;51.532;7.684;2023-01-27T14:22:17;101339.25;;;3.26;93.49